CFG3PU EDDN-EDLW
Flight info
| Callsign | CFG3PU |
|---|---|
| Flight time | 0h 41m |
| Altitude | 23000 |
| Route | EDDN/10 N0411F240 SULU1C SULUS L604 MASEK Z52 ARPEG Z850 ADEMI ADEM2A EDLW/06 |
| Aircraft | A333/M-SDE2E3FGHIJ1RWXYZ/S |
Departure
| Time | 2026-04-29 12:36 |
|---|---|
| Airport | Nuremberg Airport (EDDN) |
Arrival
| Time | 2026-04-29 13:17 |
|---|---|
| Airport | Dortmund Airport (EDLW) |
| Time | Latitude | Longitude | Altitude | Speed | Heading |
|---|---|---|---|---|---|
| 2026-04-29 12:09 | 49.49546 | 11.07588 | 1031 ft | 0 kts | 188° |
| 2026-04-29 12:25 | 49.49564 | 11.07592 | 1028 ft | 3 kts | 188° |
| 2026-04-29 12:26 | 49.49582 | 11.07595 | 1032 ft | 3 kts | 172° |
| 2026-04-29 12:26 | 49.49601 | 11.07584 | 1029 ft | 3 kts | 125° |
| 2026-04-29 12:26 | 49.49607 | 11.07570 | 1030 ft | 0 kts | 98° |
| 2026-04-29 12:29 | 49.49606 | 11.07575 | 1030 ft | 1 kts | 98° |
| 2026-04-29 12:29 | 49.49602 | 11.07620 | 1029 ft | 8 kts | 98° |
| 2026-04-29 12:30 | 49.49599 | 11.07724 | 1032 ft | 9 kts | 72° |
| 2026-04-29 12:30 | 49.49623 | 11.07758 | 1033 ft | 2 kts | 28° |
| 2026-04-29 12:30 | 49.49641 | 11.07766 | 1031 ft | 2 kts | 7° |
| 2026-04-29 12:30 | 49.49656 | 11.07763 | 1035 ft | 3 kts | 350° |
| 2026-04-29 12:31 | 49.49677 | 11.07733 | 1035 ft | 6 kts | 301° |
| 2026-04-29 12:31 | 49.49691 | 11.07657 | 1036 ft | 10 kts | 281° |
| 2026-04-29 12:31 | 49.49706 | 11.07522 | 1033 ft | 16 kts | 279° |
| 2026-04-29 12:31 | 49.49724 | 11.07338 | 1031 ft | 16 kts | 278° |
| 2026-04-29 12:32 | 49.49735 | 11.07219 | 1026 ft | 12 kts | 279° |
| 2026-04-29 12:32 | 49.49750 | 11.07068 | 1023 ft | 16 kts | 278° |
| 2026-04-29 12:32 | 49.49766 | 11.06910 | 1021 ft | 14 kts | 279° |
| 2026-04-29 12:32 | 49.49783 | 11.06748 | 1021 ft | 17 kts | 279° |
| 2026-04-29 12:33 | 49.49796 | 11.06605 | 1021 ft | 13 kts | 278° |
| 2026-04-29 12:33 | 49.49810 | 11.06462 | 1023 ft | 13 kts | 278° |
| 2026-04-29 12:33 | 49.49824 | 11.06317 | 1023 ft | 14 kts | 278° |
| 2026-04-29 12:33 | 49.49840 | 11.06158 | 1023 ft | 16 kts | 278° |
| 2026-04-29 12:34 | 49.49851 | 11.06052 | 1024 ft | 4 kts | 283° |
| 2026-04-29 12:34 | 49.49875 | 11.06003 | 1021 ft | 8 kts | 322° |
| 2026-04-29 12:34 | 49.49942 | 11.05948 | 1020 ft | 15 kts | 337° |
| 2026-04-29 12:34 | 49.50042 | 11.05942 | 1022 ft | 5 kts | 25° |
| 2026-04-29 12:35 | 49.50045 | 11.05959 | 1022 ft | 2 kts | 82° |
| 2026-04-29 12:35 | 49.50045 | 11.05968 | 1022 ft | 5 kts | 90° |
| 2026-04-29 12:35 | 49.50024 | 11.06405 | 1021 ft | 77 kts | 99° |
| 2026-04-29 12:35 | 49.49894 | 11.07597 | 1062 ft | 144 kts | 95° |
| 2026-04-29 12:36 | 49.49719 | 11.09173 | 1685 ft | 147 kts | 94° |
| 2026-04-29 12:36 | 49.49571 | 11.10681 | 2452 ft | 149 kts | 95° |
| 2026-04-29 12:36 | 49.49410 | 11.12439 | 2806 ft | 178 kts | 95° |
| 2026-04-29 12:36 | 49.49218 | 11.14477 | 3132 ft | 207 kts | 96° |
| 2026-04-29 12:37 | 49.49093 | 11.16793 | 3542 ft | 230 kts | 88° |
| 2026-04-29 12:37 | 49.49285 | 11.19296 | 4199 ft | 240 kts | 75° |
| 2026-04-29 12:37 | 49.49885 | 11.21723 | 5055 ft | 246 kts | 63° |
| 2026-04-29 12:37 | 49.50885 | 11.23884 | 6006 ft | 250 kts | 49° |
| 2026-04-29 12:38 | 49.52218 | 11.25624 | 6692 ft | 255 kts | 37° |
| 2026-04-29 12:38 | 49.53752 | 11.27076 | 7016 ft | 261 kts | 33° |
| 2026-04-29 12:38 | 49.55338 | 11.28464 | 7241 ft | 262 kts | 31° |
| 2026-04-29 12:38 | 49.56921 | 11.29835 | 7282 ft | 261 kts | 30° |
| 2026-04-29 12:39 | 49.58622 | 11.30802 | 7305 ft | 264 kts | 12° |
| 2026-04-29 12:39 | 49.60478 | 11.30693 | 7626 ft | 273 kts | 349° |
| 2026-04-29 12:39 | 49.62251 | 11.29531 | 8500 ft | 279 kts | 335° |
| 2026-04-29 12:39 | 49.63951 | 11.28113 | 9620 ft | 276 kts | 334° |
| 2026-04-29 12:40 | 49.65629 | 11.26674 | 10636 ft | 278 kts | 334° |
| 2026-04-29 12:40 | 49.67378 | 11.25180 | 11088 ft | 298 kts | 334° |
| 2026-04-29 12:40 | 49.69242 | 11.23600 | 11403 ft | 321 kts | 333° |
| 2026-04-29 12:40 | 49.71257 | 11.21897 | 11809 ft | 339 kts | 333° |
| 2026-04-29 12:41 | 49.73359 | 11.20114 | 12491 ft | 345 kts | 333° |
| 2026-04-29 12:41 | 49.75467 | 11.18327 | 13372 ft | 347 kts | 333° |
| 2026-04-29 12:41 | 49.77592 | 11.16527 | 14213 ft | 349 kts | 333° |
| 2026-04-29 12:41 | 49.79726 | 11.14716 | 14910 ft | 352 kts | 333° |
| 2026-04-29 12:42 | 49.81902 | 11.12866 | 15477 ft | 360 kts | 332° |
| 2026-04-29 12:42 | 49.84011 | 11.10738 | 16144 ft | 365 kts | 323° |
| 2026-04-29 12:42 | 49.85895 | 11.08045 | 16757 ft | 372 kts | 317° |
| 2026-04-29 12:42 | 49.87703 | 11.05154 | 17431 ft | 375 kts | 316° |
| 2026-04-29 12:43 | 49.89511 | 11.02208 | 18097 ft | 378 kts | 316° |
| 2026-04-29 12:43 | 49.91340 | 10.99230 | 18690 ft | 383 kts | 316° |
| 2026-04-29 12:43 | 49.93163 | 10.96269 | 19208 ft | 386 kts | 317° |
| 2026-04-29 12:43 | 49.95031 | 10.93236 | 19755 ft | 389 kts | 317° |
| 2026-04-29 12:44 | 49.96912 | 10.90181 | 20309 ft | 392 kts | 317° |
| 2026-04-29 12:44 | 49.98801 | 10.87111 | 20865 ft | 395 kts | 317° |
| 2026-04-29 12:44 | 50.00705 | 10.84014 | 21422 ft | 397 kts | 317° |
| 2026-04-29 12:44 | 50.02617 | 10.80902 | 21969 ft | 400 kts | 317° |
| 2026-04-29 12:45 | 50.04545 | 10.77758 | 22514 ft | 402 kts | 317° |
| 2026-04-29 12:45 | 50.06484 | 10.74595 | 23022 ft | 405 kts | 317° |
| 2026-04-29 12:45 | 50.08435 | 10.71410 | 23265 ft | 406 kts | 317° |
| 2026-04-29 12:45 | 50.10386 | 10.68220 | 23294 ft | 407 kts | 317° |
| 2026-04-29 12:46 | 50.12337 | 10.65029 | 23297 ft | 407 kts | 317° |
| 2026-04-29 12:46 | 50.14292 | 10.61826 | 23298 ft | 408 kts | 317° |
| 2026-04-29 12:46 | 50.16222 | 10.58660 | 23265 ft | 408 kts | 317° |
| 2026-04-29 12:46 | 50.18180 | 10.55443 | 23294 ft | 409 kts | 318° |
| 2026-04-29 12:47 | 50.20148 | 10.52204 | 23298 ft | 410 kts | 318° |
| 2026-04-29 12:47 | 50.22116 | 10.48963 | 23306 ft | 411 kts | 318° |
| 2026-04-29 12:47 | 50.24094 | 10.45740 | 23309 ft | 411 kts | 319° |
| 2026-04-29 12:47 | 50.26079 | 10.42540 | 23308 ft | 411 kts | 319° |
| 2026-04-29 12:48 | 50.28072 | 10.39340 | 23312 ft | 411 kts | 319° |
| 2026-04-29 12:48 | 50.30064 | 10.36143 | 23302 ft | 411 kts | 319° |
| 2026-04-29 12:48 | 50.32063 | 10.32931 | 23302 ft | 411 kts | 319° |
| 2026-04-29 12:48 | 50.34053 | 10.29728 | 23311 ft | 410 kts | 319° |
| 2026-04-29 12:49 | 50.36002 | 10.26455 | 23309 ft | 412 kts | 316° |
| 2026-04-29 12:49 | 50.37878 | 10.23064 | 23320 ft | 412 kts | 316° |
| 2026-04-29 12:49 | 50.39772 | 10.19768 | 23300 ft | 411 kts | 317° |
| 2026-04-29 12:49 | 50.41737 | 10.16490 | 23311 ft | 412 kts | 318° |
| 2026-04-29 12:50 | 50.43721 | 10.13245 | 23317 ft | 413 kts | 319° |
| 2026-04-29 12:50 | 50.45690 | 10.09976 | 23317 ft | 413 kts | 318° |
| 2026-04-29 12:50 | 50.47654 | 10.06665 | 23316 ft | 413 kts | 317° |
| 2026-04-29 12:50 | 50.49607 | 10.03342 | 23316 ft | 413 kts | 317° |
| 2026-04-29 12:51 | 50.51549 | 10.00019 | 23313 ft | 413 kts | 317° |
| 2026-04-29 12:51 | 50.53493 | 9.96683 | 23315 ft | 413 kts | 317° |
| 2026-04-29 12:51 | 50.55397 | 9.93293 | 23327 ft | 414 kts | 315° |
| 2026-04-29 12:51 | 50.57254 | 9.89838 | 23329 ft | 415 kts | 315° |
| 2026-04-29 12:52 | 50.59097 | 9.86330 | 23325 ft | 415 kts | 314° |
| 2026-04-29 12:52 | 50.60926 | 9.82816 | 23325 ft | 415 kts | 314° |
| 2026-04-29 12:52 | 50.62737 | 9.79335 | 23319 ft | 416 kts | 314° |
| 2026-04-29 12:52 | 50.64598 | 9.75767 | 23326 ft | 417 kts | 314° |
| 2026-04-29 12:53 | 50.66422 | 9.72279 | 23329 ft | 417 kts | 314° |
| 2026-04-29 12:53 | 50.68266 | 9.68754 | 23327 ft | 417 kts | 314° |
| 2026-04-29 12:53 | 50.70110 | 9.65225 | 23328 ft | 417 kts | 314° |
| 2026-04-29 12:53 | 50.71789 | 9.61458 | 23328 ft | 422 kts | 305° |
| 2026-04-29 12:54 | 50.73048 | 9.57238 | 23324 ft | 429 kts | 294° |
| 2026-04-29 12:54 | 50.73931 | 9.52713 | 23325 ft | 432 kts | 290° |
| 2026-04-29 12:54 | 50.74658 | 9.48097 | 23326 ft | 434 kts | 287° |
| 2026-04-29 12:54 | 50.75298 | 9.43432 | 23326 ft | 434 kts | 286° |
| 2026-04-29 12:55 | 50.75901 | 9.38749 | 23315 ft | 435 kts | 285° |
| 2026-04-29 12:55 | 50.76495 | 9.34067 | 23321 ft | 435 kts | 285° |
| 2026-04-29 12:55 | 50.77097 | 9.29368 | 23326 ft | 435 kts | 286° |
| 2026-04-29 12:55 | 50.77707 | 9.24685 | 23328 ft | 435 kts | 286° |
| 2026-04-29 12:56 | 50.78326 | 9.20002 | 23320 ft | 435 kts | 286° |
| 2026-04-29 12:56 | 50.78947 | 9.15331 | 23322 ft | 435 kts | 286° |
| 2026-04-29 12:56 | 50.79572 | 9.10646 | 23323 ft | 435 kts | 286° |
| 2026-04-29 12:56 | 50.80190 | 9.06006 | 23321 ft | 435 kts | 286° |
| 2026-04-29 12:57 | 50.80811 | 9.01331 | 23304 ft | 435 kts | 286° |
| 2026-04-29 12:57 | 50.81431 | 8.96641 | 23048 ft | 433 kts | 286° |
| 2026-04-29 12:57 | 50.82052 | 8.91989 | 22775 ft | 431 kts | 288° |
| 2026-04-29 12:57 | 50.83007 | 8.87567 | 22519 ft | 423 kts | 297° |
| 2026-04-29 12:58 | 50.84221 | 8.83332 | 22244 ft | 420 kts | 300° |
| 2026-04-29 12:58 | 50.85523 | 8.79204 | 21989 ft | 418 kts | 302° |
| 2026-04-29 12:58 | 50.86871 | 8.75140 | 21720 ft | 416 kts | 302° |
| 2026-04-29 12:58 | 50.88233 | 8.71116 | 21371 ft | 414 kts | 303° |
| 2026-04-29 12:59 | 50.89597 | 8.67100 | 20935 ft | 412 kts | 302° |
| 2026-04-29 12:59 | 50.90947 | 8.63102 | 20509 ft | 410 kts | 304° |
| 2026-04-29 12:59 | 50.92305 | 8.59157 | 20091 ft | 406 kts | 304° |
| 2026-04-29 12:59 | 50.93655 | 8.55287 | 19661 ft | 404 kts | 304° |
| 2026-04-29 13:00 | 50.95003 | 8.51389 | 19267 ft | 402 kts | 304° |
| 2026-04-29 13:00 | 50.96327 | 8.47496 | 18839 ft | 400 kts | 303° |
| 2026-04-29 13:00 | 50.97631 | 8.43607 | 18414 ft | 398 kts | 303° |
| 2026-04-29 13:00 | 50.98915 | 8.39731 | 17944 ft | 396 kts | 302° |
| 2026-04-29 13:01 | 51.00189 | 8.35867 | 17495 ft | 393 kts | 303° |
| 2026-04-29 13:01 | 51.01703 | 8.32323 | 17058 ft | 384 kts | 316° |
| 2026-04-29 13:01 | 51.03642 | 8.29505 | 16633 ft | 375 kts | 327° |
| 2026-04-29 13:01 | 51.05783 | 8.27151 | 16177 ft | 372 kts | 332° |
| 2026-04-29 13:02 | 51.08003 | 8.25041 | 15678 ft | 370 kts | 335° |
| 2026-04-29 13:02 | 51.10250 | 8.23067 | 15187 ft | 368 kts | 336° |
| 2026-04-29 13:02 | 51.12470 | 8.21174 | 14705 ft | 366 kts | 336° |
| 2026-04-29 13:02 | 51.14740 | 8.19239 | 14232 ft | 364 kts | 336° |
| 2026-04-29 13:03 | 51.16936 | 8.17346 | 13658 ft | 363 kts | 335° |
| 2026-04-29 13:03 | 51.19144 | 8.15412 | 12981 ft | 360 kts | 336° |
| 2026-04-29 13:03 | 51.21329 | 8.13475 | 12351 ft | 358 kts | 335° |
| 2026-04-29 13:03 | 51.23495 | 8.11539 | 11716 ft | 355 kts | 334° |
| 2026-04-29 13:04 | 51.25641 | 8.09612 | 11091 ft | 352 kts | 335° |
| 2026-04-29 13:04 | 51.27763 | 8.07701 | 10485 ft | 349 kts | 335° |
| 2026-04-29 13:04 | 51.29873 | 8.05799 | 9836 ft | 346 kts | 335° |
| 2026-04-29 13:04 | 51.31962 | 8.03914 | 9196 ft | 343 kts | 334° |
| 2026-04-29 13:05 | 51.34036 | 8.02042 | 8543 ft | 341 kts | 335° |
| 2026-04-29 13:05 | 51.36096 | 8.00190 | 7903 ft | 338 kts | 335° |
| 2026-04-29 13:05 | 51.38142 | 7.98349 | 7284 ft | 336 kts | 335° |
| 2026-04-29 13:05 | 51.40172 | 7.96523 | 6697 ft | 334 kts | 335° |
| 2026-04-29 13:06 | 51.42181 | 7.94680 | 6040 ft | 327 kts | 334° |
| 2026-04-29 13:06 | 51.44102 | 7.92896 | 5526 ft | 309 kts | 335° |
| 2026-04-29 13:06 | 51.45879 | 7.91255 | 5378 ft | 290 kts | 335° |
| 2026-04-29 13:06 | 51.47526 | 7.89426 | 5337 ft | 290 kts | 321° |
| 2026-04-29 13:07 | 51.48690 | 7.86774 | 5130 ft | 295 kts | 296° |
| 2026-04-29 13:07 | 51.49324 | 7.83648 | 4999 ft | 294 kts | 288° |
| 2026-04-29 13:07 | 51.49836 | 7.80477 | 4994 ft | 295 kts | 287° |
| 2026-04-29 13:07 | 51.50347 | 7.77264 | 4999 ft | 296 kts | 287° |
| 2026-04-29 13:08 | 51.50860 | 7.74071 | 4994 ft | 295 kts | 287° |
| 2026-04-29 13:08 | 51.51375 | 7.70873 | 4996 ft | 296 kts | 287° |
| 2026-04-29 13:08 | 51.51895 | 7.67674 | 4992 ft | 297 kts | 287° |
| 2026-04-29 13:08 | 51.52288 | 7.64413 | 4885 ft | 297 kts | 273° |
| 2026-04-29 13:09 | 51.51933 | 7.61243 | 4741 ft | 283 kts | 246° |
| 2026-04-29 13:09 | 51.51069 | 7.58466 | 4583 ft | 274 kts | 239° |
| 2026-04-29 13:09 | 51.50138 | 7.55878 | 4457 ft | 260 kts | 238° |
| 2026-04-29 13:09 | 51.49249 | 7.53443 | 4356 ft | 246 kts | 238° |
| 2026-04-29 13:10 | 51.48404 | 7.51127 | 4253 ft | 236 kts | 239° |
| 2026-04-29 13:10 | 51.47584 | 7.48864 | 3957 ft | 232 kts | 239° |
| 2026-04-29 13:10 | 51.46745 | 7.46734 | 3859 ft | 220 kts | 226° |
| 2026-04-29 13:10 | 51.45498 | 7.45583 | 3678 ft | 202 kts | 184° |
| 2026-04-29 13:11 | 51.44168 | 7.45637 | 3528 ft | 188 kts | 168° |
| 2026-04-29 13:11 | 51.42892 | 7.45295 | 3345 ft | 193 kts | 209° |
| 2026-04-29 13:11 | 51.42147 | 7.43578 | 3002 ft | 191 kts | 261° |
| 2026-04-29 13:11 | 51.42440 | 7.41626 | 2709 ft | 173 kts | 319° |
| 2026-04-29 13:12 | 51.43398 | 7.40974 | 2537 ft | 140 kts | 14° |
| 2026-04-29 13:12 | 51.44273 | 7.41389 | 2457 ft | 126 kts | 36° |
| 2026-04-29 13:12 | 51.44919 | 7.42290 | 2459 ft | 123 kts | 53° |
| 2026-04-29 13:12 | 51.45451 | 7.43375 | 2274 ft | 125 kts | 58° |
| 2026-04-29 13:13 | 51.45915 | 7.44534 | 2032 ft | 124 kts | 61° |
| 2026-04-29 13:13 | 51.46365 | 7.45741 | 1911 ft | 127 kts | 62° |
| 2026-04-29 13:13 | 51.46662 | 7.46549 | 1825 ft | 126 kts | 63° |
| 2026-04-29 13:13 | 51.47082 | 7.47745 | 1743 ft | 119 kts | 63° |
| 2026-04-29 13:14 | 51.47475 | 7.48861 | 1735 ft | 112 kts | 63° |
| 2026-04-29 13:14 | 51.47857 | 7.49938 | 1742 ft | 110 kts | 62° |
| 2026-04-29 13:14 | 51.48236 | 7.51007 | 1762 ft | 112 kts | 62° |
| 2026-04-29 13:14 | 51.48759 | 7.52488 | 1662 ft | 117 kts | 63° |
| 2026-04-29 13:15 | 51.49030 | 7.53257 | 1526 ft | 116 kts | 63° |
| 2026-04-29 13:15 | 51.49409 | 7.54334 | 1363 ft | 111 kts | 62° |
| 2026-04-29 13:15 | 51.49794 | 7.55425 | 1211 ft | 115 kts | 63° |
| 2026-04-29 13:15 | 51.50189 | 7.56548 | 1048 ft | 116 kts | 62° |
| 2026-04-29 13:16 | 51.50591 | 7.57692 | 891 ft | 118 kts | 62° |
| 2026-04-29 13:16 | 51.50985 | 7.58822 | 690 ft | 114 kts | 66° |
| 2026-04-29 13:16 | 51.51366 | 7.59900 | 505 ft | 107 kts | 59° |
| 2026-04-29 13:16 | 51.51700 | 7.60852 | 415 ft | 77 kts | 61° |
| 2026-04-29 13:17 | 51.51816 | 7.61184 | 414 ft | 10 kts | 60° |
| 2026-04-29 13:17 | 51.51853 | 7.61289 | 414 ft | 11 kts | 60° |
| 2026-04-29 13:17 | 51.51894 | 7.61414 | 413 ft | 15 kts | 61° |
| 2026-04-29 13:17 | 51.51952 | 7.61580 | 409 ft | 19 kts | 61° |
| 2026-04-29 13:18 | 51.52017 | 7.61769 | 407 ft | 20 kts | 61° |
| 2026-04-29 13:18 | 51.52091 | 7.61961 | 411 ft | 20 kts | 58° |
| 2026-04-29 13:18 | 51.52161 | 7.62160 | 406 ft | 21 kts | 62° |
| 2026-04-29 13:18 | 51.52173 | 7.62314 | 406 ft | 8 kts | 136° |
| 2026-04-29 13:19 | 51.52123 | 7.62368 | 404 ft | 10 kts | 148° |
| 2026-04-29 13:19 | 51.52105 | 7.62383 | 405 ft | 2 kts | 152° |
| 2026-04-29 13:19 | 51.52105 | 7.62384 | 406 ft | 0 kts | 152° |
| 2026-04-29 13:19 | 51.52101 | 7.62387 | 409 ft | 2 kts | 152° |
| 2026-04-29 13:20 | 51.52099 | 7.62388 | 410 ft | 0 kts | 152° |
| 2026-04-29 13:22 | 51.52092 | 7.62392 | 411 ft | 3 kts | 165° |
| 2026-04-29 13:22 | 51.52071 | 7.62382 | 413 ft | 5 kts | 198° |
| 2026-04-29 13:22 | 51.52046 | 7.62353 | 408 ft | 3 kts | 236° |
| 2026-04-29 13:22 | 51.52030 | 7.62313 | 404 ft | 6 kts | 235° |
| 2026-04-29 13:23 | 51.52007 | 7.62257 | 408 ft | 7 kts | 238° |
| 2026-04-29 13:23 | 51.51980 | 7.62183 | 410 ft | 9 kts | 240° |
| 2026-04-29 13:23 | 51.51941 | 7.62073 | 407 ft | 13 kts | 240° |
| 2026-04-29 13:23 | 51.51895 | 7.61941 | 408 ft | 13 kts | 240° |
| 2026-04-29 13:24 | 51.51851 | 7.61816 | 416 ft | 13 kts | 240° |
| 2026-04-29 13:24 | 51.51803 | 7.61681 | 412 ft | 14 kts | 240° |
| 2026-04-29 13:24 | 51.51759 | 7.61555 | 418 ft | 12 kts | 240° |
| 2026-04-29 13:24 | 51.51720 | 7.61446 | 415 ft | 11 kts | 240° |
| 2026-04-29 13:25 | 51.51682 | 7.61340 | 418 ft | 11 kts | 240° |
| 2026-04-29 13:25 | 51.51607 | 7.61125 | 418 ft | 12 kts | 240° |
| 2026-04-29 13:25 | 51.51547 | 7.61064 | 423 ft | 7 kts | 182° |
| 2026-04-29 13:26 | 51.51522 | 7.61049 | 426 ft | 2 kts | 208° |
| 2026-04-29 13:26 | 51.51507 | 7.61028 | 426 ft | 6 kts | 223° |
| 2026-04-29 13:26 | 51.51469 | 7.60937 | 425 ft | 13 kts | 239° |
| 2026-04-29 13:26 | 51.51429 | 7.60832 | 425 ft | 2 kts | 223° |
| 2026-04-29 13:27 | 51.51425 | 7.60832 | 428 ft | 0 kts | 194° |
| 2026-04-29 13:27 | 51.51402 | 7.60823 | 426 ft | 6 kts | 200° |
| 2026-04-29 13:27 | 51.51357 | 7.60804 | 431 ft | 4 kts | 163° |
| 2026-04-29 13:27 | 51.51355 | 7.60809 | 432 ft | 0 kts | 144° |